createdAt,value
2023-07-23T00:01:08.651Z,16.66
2023-07-23T00:03:35.210Z,16.66
2023-07-23T00:06:06.031Z,16.64
2023-07-23T00:08:35.757Z,16.65
2023-07-23T00:11:02.320Z,16.65
2023-07-23T00:13:28.855Z,16.63
2023-07-23T00:15:55.491Z,16.64
2023-07-23T00:18:22.100Z,16.64
2023-07-23T00:20:48.558Z,16.65
2023-07-23T00:23:14.953Z,16.63
2023-07-23T00:25:41.476Z,16.61
2023-07-23T00:28:08.484Z,16.58
2023-07-23T00:30:35.943Z,16.56
2023-07-23T00:33:02.607Z,16.58
2023-07-23T00:35:29.086Z,16.60
2023-07-23T00:37:55.551Z,16.62
2023-07-23T00:40:22.074Z,16.63
2023-07-23T00:42:48.500Z,16.62
2023-07-23T00:45:14.976Z,16.62
2023-07-23T00:47:43.779Z,16.64
2023-07-23T00:50:13.925Z,16.59
2023-07-23T00:52:41.283Z,16.58
2023-07-23T00:55:08.527Z,16.61
2023-07-23T00:57:35.062Z,16.61
2023-07-23T01:00:06.803Z,16.62
2023-07-23T01:02:33.692Z,16.65
2023-07-23T01:05:01.080Z,16.64
2023-07-23T01:07:30.760Z,16.64
2023-07-23T01:09:57.714Z,16.64
2023-07-23T01:12:25.248Z,16.63
2023-07-23T01:14:51.767Z,16.60
2023-07-23T01:17:20.173Z,16.59
2023-07-23T01:19:47.437Z,16.59
2023-07-23T01:22:13.905Z,16.61
2023-07-23T01:24:40.420Z,16.60
2023-07-23T01:27:07.099Z,16.59
2023-07-23T01:29:33.511Z,16.57
2023-07-23T01:32:00.008Z,16.54
2023-07-23T01:34:27.330Z,16.48
2023-07-23T01:36:54.354Z,16.38
2023-07-23T01:39:21.971Z,16.39
2023-07-23T01:41:48.676Z,16.44
2023-07-23T01:44:15.133Z,16.45
2023-07-23T01:46:41.581Z,16.38
2023-07-23T01:49:08.022Z,16.38
2023-07-23T01:51:34.482Z,16.35
2023-07-23T01:54:03.619Z,16.36
2023-07-23T01:56:30.036Z,16.39
2023-07-23T01:58:56.514Z,16.36
2023-07-23T02:01:23.057Z,16.32
2023-07-23T02:03:49.775Z,16.35
2023-07-23T02:06:16.293Z,16.38
2023-07-23T02:08:42.723Z,16.38
2023-07-23T02:11:09.143Z,16.39
2023-07-23T02:13:35.592Z,16.39
2023-07-23T02:16:05.327Z,16.43
2023-07-23T02:18:35.046Z,16.44
2023-07-23T02:21:04.332Z,16.45
2023-07-23T02:23:30.709Z,16.43
2023-07-23T02:25:57.177Z,16.37
2023-07-23T02:28:23.617Z,16.36
2023-07-23T02:31:01.783Z,16.35
2023-07-23T02:33:28.272Z,16.36
2023-07-23T02:35:54.723Z,16.35
2023-07-23T02:38:21.176Z,16.36
2023-07-23T02:40:47.573Z,16.39
2023-07-23T02:43:14.065Z,16.40
2023-07-23T02:45:41.008Z,16.40
2023-07-23T02:48:08.403Z,16.40
2023-07-23T02:50:34.976Z,16.39
2023-07-23T02:53:04.752Z,16.36
2023-07-23T02:55:33.833Z,16.37
2023-07-23T02:58:02.029Z,16.38
2023-07-23T03:00:32.389Z,16.39
2023-07-23T03:02:58.989Z,16.39
2023-07-23T03:05:25.725Z,16.39
2023-07-23T03:07:55.846Z,16.39
2023-07-23T03:10:22.425Z,16.39
2023-07-23T03:12:48.953Z,16.38
2023-07-23T03:15:15.343Z,16.38
2023-07-23T03:17:41.793Z,16.38
2023-07-23T03:20:11.561Z,16.37
2023-07-23T03:22:41.400Z,16.36
2023-07-23T03:25:08.466Z,16.36
2023-07-23T03:27:35.025Z,16.35
2023-07-23T03:30:04.693Z,16.35
2023-07-23T03:32:31.397Z,16.35
2023-07-23T03:34:57.854Z,16.35
2023-07-23T03:37:24.288Z,16.35
2023-07-23T03:39:50.735Z,16.33
2023-07-23T03:42:17.156Z,16.33
2023-07-23T03:44:43.632Z,16.31
2023-07-23T03:47:17.820Z,16.32
2023-07-23T03:49:46.137Z,16.31
2023-07-23T03:52:13.369Z,16.32
2023-07-23T03:54:40.260Z,16.31
2023-07-23T03:57:07.456Z,16.29
2023-07-23T03:59:44.404Z,16.29
2023-07-23T04:02:11.362Z,16.29
2023-07-23T04:04:39.590Z,16.29
2023-07-23T04:07:07.360Z,16.22
2023-07-23T04:09:34.302Z,16.21
2023-07-23T04:12:02.231Z,16.21
2023-07-23T04:14:28.753Z,16.23
2023-07-23T04:16:56.220Z,16.21
2023-07-23T04:19:23.367Z,16.22
2023-07-23T04:21:50.353Z,16.20
2023-07-23T04:24:16.904Z,16.19
2023-07-23T04:26:43.428Z,16.18
2023-07-23T04:29:10.198Z,16.18
2023-07-23T04:31:38.180Z,16.19
2023-07-23T04:34:04.920Z,16.17
2023-07-23T04:36:31.491Z,16.19
2023-07-23T04:38:58.159Z,16.20
2023-07-23T04:41:24.641Z,16.20
2023-07-23T04:43:51.169Z,16.23
2023-07-23T04:46:17.631Z,16.22
2023-07-23T04:48:44.145Z,16.22
2023-07-23T04:51:11.013Z,16.24
2023-07-23T04:53:37.639Z,16.21
2023-07-23T04:56:06.142Z,16.21
2023-07-23T04:58:33.336Z,16.21
2023-07-23T05:01:07.170Z,16.23
2023-07-23T05:03:33.683Z,16.23
2023-07-23T05:06:03.959Z,16.16
2023-07-23T05:08:30.820Z,16.00
2023-07-23T05:11:02.429Z,15.99
2023-07-23T05:13:29.935Z,16.05
2023-07-23T05:15:58.431Z,16.10
2023-07-23T05:18:25.134Z,16.13
2023-07-23T05:20:51.615Z,16.16
2023-07-23T05:23:18.829Z,16.15
2023-07-23T05:25:45.763Z,16.15
2023-07-23T05:28:12.254Z,16.14
2023-07-23T05:30:39.764Z,16.15
2023-07-23T05:33:08.613Z,16.18
2023-07-23T05:35:35.456Z,16.19
2023-07-23T05:38:02.000Z,16.19
2023-07-23T05:40:28.520Z,16.18
2023-07-23T05:42:56.575Z,16.19
2023-07-23T05:45:23.577Z,16.16
2023-07-23T05:47:50.105Z,16.17
2023-07-23T05:50:16.696Z,16.13
2023-07-23T05:52:43.237Z,16.11
2023-07-23T05:55:09.733Z,16.09
2023-07-23T05:57:36.268Z,16.11
2023-07-23T06:00:03.306Z,16.11
2023-07-23T06:02:29.695Z,16.10
2023-07-23T06:04:56.169Z,16.14
2023-07-23T06:07:22.654Z,16.13
2023-07-23T06:09:49.114Z,16.14
2023-07-23T06:12:15.486Z,16.15
2023-07-23T06:14:42.079Z,16.16
2023-07-23T06:17:09.126Z,16.16
2023-07-23T06:19:35.761Z,16.14
2023-07-23T06:22:02.321Z,16.15
2023-07-23T06:24:28.879Z,16.12
2023-07-23T06:26:55.433Z,16.13
2023-07-23T06:29:21.872Z,16.14
2023-07-23T06:31:48.329Z,16.15
2023-07-23T06:34:15.015Z,16.13
2023-07-23T06:36:41.660Z,16.14
2023-07-23T06:39:08.078Z,16.13
2023-07-23T06:41:34.514Z,16.13
2023-07-23T06:44:00.993Z,16.07
2023-07-23T06:46:27.521Z,16.08
2023-07-23T06:48:54.127Z,16.07
2023-07-23T06:51:20.585Z,16.08
2023-07-23T06:53:47.068Z,16.08
2023-07-23T06:56:17.531Z,16.08
2023-07-23T06:58:43.986Z,16.04
2023-07-23T07:01:10.612Z,16.06
2023-07-23T07:03:37.102Z,16.02
2023-07-23T07:06:05.174Z,16.00
2023-07-23T07:08:32.437Z,16.01
2023-07-23T07:11:01.100Z,16.01
2023-07-23T07:13:28.649Z,16.02
2023-07-23T07:15:55.238Z,16.05
2023-07-23T07:18:21.994Z,16.10
2023-07-23T07:21:02.455Z,16.13
2023-07-23T07:23:30.265Z,16.10
2023-07-23T07:25:57.954Z,16.07
2023-07-23T07:28:25.947Z,16.05
2023-07-23T07:30:56.689Z,16.06
2023-07-23T07:33:23.253Z,16.08
2023-07-23T07:35:50.738Z,16.06
2023-07-23T07:38:17.100Z,16.07
2023-07-23T07:40:43.605Z,16.06
2023-07-23T07:43:10.052Z,16.08
2023-07-23T07:45:36.502Z,16.08
2023-07-23T07:48:03.075Z,16.07
2023-07-23T07:50:29.534Z,16.03
2023-07-23T07:52:56.109Z,15.99
2023-07-23T07:55:22.607Z,16.02
2023-07-23T07:57:49.499Z,16.01
2023-07-23T08:00:16.241Z,16.01
2023-07-23T08:02:43.027Z,16.01
2023-07-23T08:05:10.445Z,16.03
2023-07-23T08:07:37.492Z,16.05
2023-07-23T08:10:04.454Z,16.06
2023-07-23T08:12:31.788Z,16.08
2023-07-23T08:14:59.507Z,16.08
2023-07-23T08:17:26.282Z,16.08
2023-07-23T08:19:53.036Z,16.10
2023-07-23T08:22:19.489Z,16.07
2023-07-23T08:24:46.295Z,16.11
2023-07-23T08:27:18.407Z,16.11
2023-07-23T08:29:47.599Z,16.12
2023-07-23T08:32:20.433Z,16.12
2023-07-23T08:34:47.807Z,16.13
2023-07-23T08:37:14.573Z,16.15
2023-07-23T08:39:41.340Z,16.16
2023-07-23T08:42:15.440Z,16.17
2023-07-23T08:44:57.141Z,16.19
2023-07-23T08:47:24.157Z,16.21
2023-07-23T08:49:51.939Z,16.20
2023-07-23T08:52:21.003Z,16.22
2023-07-23T08:54:48.374Z,16.23
2023-07-23T08:57:14.846Z,16.25
2023-07-23T08:59:42.145Z,16.24
2023-07-23T09:02:12.412Z,16.27
2023-07-23T09:04:38.977Z,16.27
2023-07-23T09:07:11.521Z,16.26
2023-07-23T09:09:38.193Z,16.28
2023-07-23T09:12:05.056Z,16.30
2023-07-23T09:14:41.777Z,16.32
2023-07-23T09:17:17.364Z,16.34
2023-07-23T09:19:44.097Z,16.37
2023-07-23T09:22:10.589Z,16.37
2023-07-23T09:24:37.326Z,16.38
2023-07-23T09:27:04.463Z,16.40
2023-07-23T09:29:38.871Z,16.43
2023-07-23T09:32:16.232Z,16.46
2023-07-23T09:34:48.898Z,16.46
2023-07-23T09:37:17.222Z,16.47
2023-07-23T09:39:43.730Z,16.48
2023-07-23T09:42:11.955Z,16.48
2023-07-23T09:44:43.143Z,16.48
2023-07-23T09:47:09.809Z,16.47
2023-07-23T09:49:37.677Z,16.48
2023-07-23T09:52:08.880Z,16.50
2023-07-23T09:54:38.321Z,16.52
2023-07-23T09:57:05.290Z,16.53
2023-07-23T09:59:32.055Z,16.54
2023-07-23T10:01:58.893Z,16.57
2023-07-23T10:04:29.994Z,16.61
2023-07-23T10:06:56.788Z,16.67
2023-07-23T10:09:24.319Z,16.71
2023-07-23T10:11:50.868Z,16.73
2023-07-23T10:14:17.387Z,16.73
2023-07-23T10:16:45.489Z,16.72
2023-07-23T10:19:14.624Z,16.76
2023-07-23T10:21:41.411Z,16.76
2023-07-23T10:24:07.929Z,16.76
2023-07-23T10:26:47.382Z,16.76
2023-07-23T10:29:19.430Z,16.76
2023-07-23T10:31:46.953Z,16.72
2023-07-23T10:34:28.556Z,16.71
2023-07-23T10:37:13.397Z,16.68
2023-07-23T10:39:44.622Z,16.69
2023-07-23T10:42:11.182Z,16.68
2023-07-23T10:44:40.494Z,16.69
2023-07-23T10:47:29.391Z,16.69
2023-07-23T10:50:12.973Z,16.68
2023-07-23T10:52:39.532Z,16.71
2023-07-23T10:55:10.781Z,16.72
2023-07-23T10:57:42.527Z,16.76
2023-07-23T11:00:25.322Z,16.78
2023-07-23T11:02:54.715Z,16.79
2023-07-23T11:05:22.627Z,16.82
2023-07-23T11:08:13.304Z,16.84
2023-07-23T11:10:48.865Z,16.85
2023-07-23T11:13:17.110Z,16.89
2023-07-23T11:15:45.908Z,16.93
2023-07-23T11:18:13.087Z,16.98
2023-07-23T11:20:45.462Z,17.01
2023-07-23T11:23:12.821Z,17.04
2023-07-23T11:25:40.144Z,17.11
2023-07-23T11:28:10.056Z,17.12
2023-07-23T11:30:36.683Z,17.16
2023-07-23T11:33:06.806Z,17.18
2023-07-23T11:35:33.439Z,17.21
2023-07-23T11:38:03.548Z,17.25
2023-07-23T11:40:30.000Z,17.25
2023-07-23T11:42:56.745Z,17.25
2023-07-23T11:45:23.452Z,17.28
2023-07-23T11:47:54.937Z,17.31
2023-07-23T11:50:22.561Z,17.34
2023-07-23T11:52:51.827Z,17.36
2023-07-23T11:55:24.261Z,17.38
2023-07-23T11:58:03.866Z,17.40
2023-07-23T12:00:32.603Z,17.43
2023-07-23T12:02:59.701Z,17.48
2023-07-23T12:05:26.339Z,17.48
2023-07-23T12:07:53.733Z,17.48
2023-07-23T12:10:21.246Z,17.49
2023-07-23T12:12:48.772Z,17.55
2023-07-23T12:15:17.057Z,17.62
2023-07-23T12:17:44.834Z,17.68
2023-07-23T12:20:16.663Z,17.71
2023-07-23T12:22:50.052Z,17.70
2023-07-23T12:25:16.717Z,17.71
2023-07-23T12:27:43.441Z,17.74
2023-07-23T12:30:10.262Z,17.77
2023-07-23T12:32:36.925Z,17.83
2023-07-23T12:35:03.937Z,17.86
2023-07-23T12:37:32.581Z,17.87
2023-07-23T12:39:59.079Z,17.89
2023-07-23T12:42:25.519Z,17.90
2023-07-23T12:44:51.952Z,17.93
2023-07-23T12:47:19.392Z,18.05
2023-07-23T12:49:47.636Z,18.19
2023-07-23T12:52:18.110Z,18.26
2023-07-23T12:54:44.588Z,18.32
2023-07-23T12:57:11.523Z,18.36
2023-07-23T12:59:38.050Z,18.36
2023-07-23T13:02:04.912Z,18.38
2023-07-23T13:04:31.589Z,18.37
2023-07-23T13:06:58.087Z,18.40
2023-07-23T13:09:24.550Z,18.44
2023-07-23T13:11:51.062Z,18.48
2023-07-23T13:14:17.567Z,18.49
2023-07-23T13:16:44.078Z,18.50
2023-07-23T13:19:10.546Z,18.51
2023-07-23T13:21:37.134Z,18.55
2023-07-23T13:24:04.115Z,18.56
2023-07-23T13:26:30.745Z,18.55
2023-07-23T13:28:57.405Z,18.54
2023-07-23T13:31:23.919Z,18.52
2023-07-23T13:33:51.487Z,18.51
2023-07-23T13:36:18.043Z,18.52
2023-07-23T13:38:44.528Z,18.57
2023-07-23T13:41:11.042Z,18.61
2023-07-23T13:43:37.475Z,18.70
2023-07-23T13:46:03.907Z,18.86
2023-07-23T13:48:30.501Z,18.97
2023-07-23T13:50:56.932Z,19.09
2023-07-23T13:53:23.427Z,19.15
2023-07-23T13:55:49.910Z,19.22
2023-07-23T13:58:16.351Z,19.31
2023-07-23T14:00:42.920Z,19.46
2023-07-23T14:03:09.636Z,19.50
2023-07-23T14:05:36.378Z,19.55
2023-07-23T14:08:03.660Z,19.65
2023-07-23T14:10:30.356Z,19.71
2023-07-23T14:12:57.179Z,19.76
2023-07-23T14:15:23.639Z,19.81
2023-07-23T14:17:50.154Z,19.85
2023-07-23T14:20:16.619Z,19.85
2023-07-23T14:22:44.617Z,19.88
2023-07-23T14:25:11.274Z,19.90
2023-07-23T14:27:37.750Z,19.96
2023-07-23T14:30:04.482Z,20.04
2023-07-23T14:32:31.019Z,20.10
2023-07-23T14:34:57.928Z,20.09
2023-07-23T14:37:25.768Z,20.12
2023-07-23T14:39:52.286Z,20.21
2023-07-23T14:42:18.730Z,20.19
2023-07-23T14:44:45.212Z,20.19
2023-07-23T14:47:11.706Z,20.17
2023-07-23T14:49:38.961Z,20.13
2023-07-23T14:52:05.830Z,20.09
2023-07-23T14:54:34.608Z,20.03
2023-07-23T14:57:04.412Z,20.10
2023-07-23T14:59:30.853Z,20.18
2023-07-23T15:01:57.417Z,20.17
2023-07-23T15:04:23.883Z,20.15
2023-07-23T15:06:50.442Z,20.15
2023-07-23T15:09:17.371Z,20.12
2023-07-23T15:11:44.070Z,20.06
2023-07-23T15:14:10.863Z,20.06
2023-07-23T15:16:37.754Z,20.10
2023-07-23T15:19:04.618Z,20.12
2023-07-23T15:21:34.789Z,20.16
2023-07-23T15:24:03.441Z,20.24
2023-07-23T15:26:32.595Z,20.24
2023-07-23T15:29:00.652Z,20.24
2023-07-23T15:31:28.088Z,20.24
2023-07-23T15:33:55.352Z,20.24
2023-07-23T15:36:21.841Z,20.27
2023-07-23T15:38:49.344Z,20.32
2023-07-23T15:41:16.054Z,20.40
2023-07-23T15:43:42.743Z,20.39
2023-07-23T15:46:09.151Z,20.38
2023-07-23T15:48:35.638Z,20.37
2023-07-23T15:51:02.329Z,20.32
2023-07-23T15:53:28.724Z,20.31
2023-07-23T15:55:55.157Z,20.34
2023-07-23T15:58:21.562Z,20.35
2023-07-23T16:00:48.260Z,20.37
2023-07-23T16:03:14.766Z,20.39
2023-07-23T16:05:41.484Z,20.40
2023-07-23T16:08:08.016Z,20.42
2023-07-23T16:10:34.476Z,20.41
2023-07-23T16:13:01.058Z,20.40
2023-07-23T16:15:27.614Z,20.40
2023-07-23T16:17:54.098Z,20.42
2023-07-23T16:20:21.900Z,20.41
2023-07-23T16:22:48.418Z,20.46
2023-07-23T16:25:15.137Z,20.50
2023-07-23T16:27:41.741Z,20.48
2023-07-23T16:30:08.950Z,20.46
2023-07-23T16:32:38.109Z,20.47
2023-07-23T16:35:05.615Z,20.50
2023-07-23T16:37:37.520Z,20.49
2023-07-23T16:40:05.885Z,20.49
2023-07-23T16:42:32.908Z,20.49
2023-07-23T16:45:03.051Z,20.50
2023-07-23T16:47:29.637Z,20.51
2023-07-23T16:49:56.170Z,20.50
2023-07-23T16:52:23.275Z,20.53
2023-07-23T16:54:49.773Z,20.56
2023-07-23T16:57:18.760Z,20.61
2023-07-23T16:59:47.772Z,20.65
2023-07-23T17:02:17.849Z,20.65
2023-07-23T17:04:45.132Z,20.66
2023-07-23T17:07:12.287Z,20.65
2023-07-23T17:09:39.901Z,20.68
2023-07-23T17:12:07.115Z,20.72
2023-07-23T17:14:33.761Z,20.71
2023-07-23T17:17:02.628Z,20.73
2023-07-23T17:19:29.581Z,20.73
2023-07-23T17:21:56.216Z,20.73
2023-07-23T17:24:22.712Z,20.71
2023-07-23T17:26:49.299Z,20.67
2023-07-23T17:29:15.834Z,20.64
2023-07-23T17:31:42.428Z,20.62
2023-07-23T17:34:08.931Z,20.62
2023-07-23T17:36:35.423Z,20.59
2023-07-23T17:39:02.130Z,20.57
2023-07-23T17:41:28.526Z,20.53
2023-07-23T17:43:55.020Z,20.49
2023-07-23T17:46:21.768Z,20.45
2023-07-23T17:48:48.230Z,20.42
2023-07-23T17:51:14.621Z,20.39
2023-07-23T17:53:41.021Z,20.36
2023-07-23T17:56:07.409Z,20.33
2023-07-23T17:58:33.905Z,20.29
2023-07-23T18:01:00.372Z,20.29
2023-07-23T18:03:26.925Z,20.27
2023-07-23T18:05:56.529Z,20.25
2023-07-23T18:08:23.053Z,20.23
2023-07-23T18:10:49.469Z,20.23
2023-07-23T18:13:15.874Z,20.21
2023-07-23T18:15:42.443Z,20.20
2023-07-23T18:18:08.921Z,20.20
2023-07-23T18:20:35.334Z,20.20
2023-07-23T18:23:02.255Z,20.17
2023-07-23T18:25:28.715Z,20.16
2023-07-23T18:27:56.092Z,20.15
2023-07-23T18:30:22.580Z,20.13
2023-07-23T18:32:49.069Z,20.13
2023-07-23T18:35:15.774Z,20.12
2023-07-23T18:37:42.230Z,20.10
2023-07-23T18:40:09.026Z,20.09
2023-07-23T18:42:35.480Z,20.08
2023-07-23T18:45:03.834Z,20.07
2023-07-23T18:47:30.289Z,20.08
2023-07-23T18:49:56.717Z,20.06
2023-07-23T18:52:25.119Z,20.05
2023-07-23T18:54:52.782Z,20.03
2023-07-23T18:57:19.260Z,20.00
2023-07-23T18:59:45.737Z,20.00
2023-07-23T19:02:12.114Z,19.98
2023-07-23T19:04:46.403Z,19.96
2023-07-23T19:07:14.011Z,19.98
2023-07-23T19:09:40.565Z,19.94
2023-07-23T19:12:07.968Z,19.93
2023-07-23T19:14:34.436Z,19.91
2023-07-23T19:17:04.168Z,19.90
2023-07-23T19:19:30.780Z,19.89
2023-07-23T19:21:57.200Z,19.87
2023-07-23T19:24:23.651Z,19.85
2023-07-23T19:26:50.124Z,19.85
2023-07-23T19:29:16.511Z,19.83
2023-07-23T19:31:42.953Z,19.84
2023-07-23T19:34:09.520Z,19.83
2023-07-23T19:36:37.932Z,19.81
2023-07-23T19:39:04.514Z,19.81
2023-07-23T19:41:31.035Z,19.79
2023-07-23T19:43:57.648Z,19.78
2023-07-23T19:46:24.107Z,19.78
2023-07-23T19:48:50.588Z,19.76
2023-07-23T19:51:17.031Z,19.76
2023-07-23T19:53:43.481Z,19.77
2023-07-23T19:56:14.390Z,19.76
2023-07-23T19:58:41.000Z,19.75
2023-07-23T20:01:07.722Z,19.76
2023-07-23T20:03:34.461Z,19.74
2023-07-23T20:06:01.022Z,19.71
2023-07-23T20:08:27.535Z,19.70
2023-07-23T20:10:53.975Z,19.70
2023-07-23T20:13:20.494Z,19.70
2023-07-23T20:15:49.341Z,19.68
2023-07-23T20:18:15.792Z,19.66
2023-07-23T20:20:48.491Z,19.65
2023-07-23T20:23:14.936Z,19.64
2023-07-23T20:25:41.634Z,19.63
2023-07-23T20:28:09.280Z,19.63
2023-07-23T20:30:36.230Z,19.62
2023-07-23T20:33:02.906Z,19.58
2023-07-23T20:35:30.097Z,19.57
2023-07-23T20:37:56.805Z,19.56
2023-07-23T20:40:23.620Z,19.56
2023-07-23T20:42:50.348Z,19.56
2023-07-23T20:45:16.833Z,19.53
2023-07-23T20:47:43.269Z,19.51
2023-07-23T20:50:10.015Z,19.51
2023-07-23T20:52:36.583Z,19.50
2023-07-23T20:55:03.752Z,19.49
2023-07-23T20:57:30.193Z,19.48
2023-07-23T20:59:56.648Z,19.48
2023-07-23T21:02:23.225Z,19.47
2023-07-23T21:04:49.710Z,19.45
2023-07-23T21:07:16.176Z,19.42
2023-07-23T21:09:42.642Z,19.40
2023-07-23T21:12:08.996Z,19.39
2023-07-23T21:14:37.811Z,19.40
2023-07-23T21:17:04.899Z,19.39
2023-07-23T21:19:31.527Z,19.34
2023-07-23T21:21:57.955Z,19.33
2023-07-23T21:24:27.723Z,19.31
2023-07-23T21:26:54.184Z,19.32
2023-07-23T21:29:20.895Z,19.31
2023-07-23T21:31:47.321Z,19.30
2023-07-23T21:34:13.698Z,19.26
2023-07-23T21:36:40.745Z,19.23
2023-07-23T21:39:07.692Z,19.23
2023-07-23T21:41:34.137Z,19.24
2023-07-23T21:44:00.577Z,19.21
2023-07-23T21:46:26.982Z,19.21
2023-07-23T21:48:53.877Z,19.20
2023-07-23T21:51:20.341Z,19.16
2023-07-23T21:53:46.771Z,19.17
2023-07-23T21:56:13.217Z,19.16
2023-07-23T21:58:39.612Z,19.15
2023-07-23T22:01:06.133Z,19.13
2023-07-23T22:03:35.406Z,19.11
2023-07-23T22:06:01.922Z,19.08
2023-07-23T22:08:28.443Z,19.07
2023-07-23T22:10:54.932Z,19.03
2023-07-23T22:13:21.470Z,19.03
2023-07-23T22:15:47.940Z,19.01
2023-07-23T22:18:14.422Z,18.98
2023-07-23T22:20:40.928Z,18.97
2023-07-23T22:23:07.445Z,18.98
2023-07-23T22:25:33.879Z,19.01
2023-07-23T22:28:02.939Z,19.01
2023-07-23T22:30:31.587Z,19.01
2023-07-23T22:32:58.851Z,18.99
2023-07-23T22:35:25.535Z,18.99
2023-07-23T22:37:52.254Z,18.99
2023-07-23T22:40:18.766Z,18.98
2023-07-23T22:42:47.207Z,18.99
2023-07-23T22:45:14.508Z,18.99
2023-07-23T22:47:41.193Z,18.95
2023-07-23T22:50:07.995Z,18.97
2023-07-23T22:52:37.128Z,18.97
2023-07-23T22:55:04.338Z,18.94
2023-07-23T22:57:31.494Z,18.93
2023-07-23T23:00:00.913Z,18.95
2023-07-23T23:02:27.836Z,18.94
2023-07-23T23:04:54.283Z,18.94
2023-07-23T23:07:20.779Z,18.94
2023-07-23T23:09:47.265Z,18.93
2023-07-23T23:12:13.735Z,18.92
2023-07-23T23:14:40.134Z,18.91
2023-07-23T23:17:06.663Z,18.93
2023-07-23T23:19:33.149Z,18.91
2023-07-23T23:21:59.574Z,18.91
2023-07-23T23:24:26.117Z,18.91
2023-07-23T23:26:52.574Z,18.91
2023-07-23T23:29:19.021Z,18.92
2023-07-23T23:31:45.512Z,18.91
2023-07-23T23:34:11.964Z,18.89
2023-07-23T23:36:38.369Z,18.89
2023-07-23T23:39:04.908Z,18.88
2023-07-23T23:41:31.486Z,18.87
2023-07-23T23:43:57.923Z,18.88
2023-07-23T23:46:24.461Z,18.85
2023-07-23T23:48:50.840Z,18.84
2023-07-23T23:51:19.517Z,18.84
2023-07-23T23:53:47.579Z,18.86
2023-07-23T23:56:14.138Z,18.85
2023-07-23T23:58:40.548Z,18.82
